Flight Track Log - Related Links

Times and Time Zones

All times are in EDT time to prevent confusion due to time zone crossing. See the LYM752 flight status page for this flight to view local times or setup timezone preferences in your user account.

Time Position Orientation Groundspeed Altitude Reporting Facility
EDT Latitude Longitude Course Direction KTS MPH feet Rate Location/Type
Wed 09:19:24 PM 43.0000 -108.3119 130° Southeast 185 213 15,600  Level Denver Center
Wed 09:20:26 PM 42.9625 -108.2503 130° Southeast 200 230 17,300 1,512 Climbing Salt Lake Center
Wed 09:21:27 PM 42.9200 -108.1808 130° Southeast 216 249 18,700 1,268 Climbing Salt Lake Center
Wed 09:22:29 PM 42.8861 -108.1097 123° Southeast 226 260 19,900 1,122 Climbing Salt Lake Center
Wed 09:23:30 PM 42.8442 -108.0225 123° Southeast 242 278 21,000 537 Climbing Salt Lake Center
Wed 09:24:32 PM 42.8008 -107.9408 126° Southeast 275 316 21,000 -49 Level Salt Lake Center
Wed 09:25:33 PM 42.7461 -107.8589 132° Southeast 300 345 20,900  Descending Salt Lake Center
Wed 09:26:34 PM 42.6836 -107.7603 131° Southeast 307 353 21,000  Climbing Salt Lake Center
Wed 09:27:35 PM 42.6289 -107.6747 131° Southeast 312 359 20,900  Descending Salt Lake Center
Wed 09:28:37 PM 42.5658 -107.5750 131° Southeast 312 359 21,000  Climbing Salt Lake Center
Wed 09:29:38 PM 42.5125 -107.4900 130° Southeast 310 357 20,900  Descending Salt Lake Center
Wed 09:30:39 PM 42.4594 -107.4042 130° Southeast 311 358 21,000 48 Climbing Salt Lake Center
Wed 09:31:43 PM 42.3981 -107.3036 130° Southeast 310 357 21,000 -48 Level Denver Center
Wed 09:32:44 PM 42.3547 -107.2317 129° Southeast 309 356 20,900  Descending Denver Center
Wed 09:33:46 PM 42.2797 -107.1194 132° Southeast 312 359 21,000 48 Climbing Denver Center
Wed 09:34:48 PM 42.2239 -107.0367 132° Southeast 312 359 21,000 -49 Level Denver Center
Wed 09:35:49 PM 42.1592 -106.9411 132° Southeast 310 357 20,900  Descending Denver Center
Wed 09:37:53 PM 42.0542 -106.7756 130° Southeast 305 351 21,000 32 Climbing Denver Center
Wed 09:38:54 PM 41.9947 -106.6825 131° Southeast 296 341 21,000  Level Denver Center
Wed 09:39:56 PM 41.9378 -106.6039 134° Southeast 302 348 21,000  Level Denver Center
Wed 09:40:57 PM 41.8761 -106.5122 132° Southeast 297 342 21,000  Level Denver Center
Wed 09:41:59 PM 41.8222 -106.4325 132° Southeast 299 344 21,000  Level Denver Center
Wed 09:43:01 PM 41.7589 -106.3406 133° Southeast 299 344 21,000  Level Denver Center
Wed 09:44:02 PM 41.7042 -106.2631 133° Southeast 300 345 21,000  Level Denver Center
Wed 09:45:04 PM 41.6525 -106.1847 131° Southeast 296 341 21,000  Level Denver Center
Wed 09:46:06 PM 41.5917 -106.0922 131° Southeast 296 341 21,000 -244 Level Denver Center
Wed 09:47:07 PM 41.5383 -106.0111 131° Southeast 301 346 20,500 -634 Descending Denver Center
Wed 09:48:09 PM 41.4711 -105.9206 135° Southeast 307 353 19,700 -726 Descending Denver Center
Wed 09:49:11 PM 41.4169 -105.8325 129° Southeast 317 365 19,000 -829 Descending Denver Center
Wed 09:50:12 PM 41.3478 -105.7381 134° Southeast 320 368 18,000 -683 Descending Denver Center
Wed 09:51:14 PM 41.2908 -105.6522 131° Southeast 323 372 17,600 -634 Descending Denver Center
Wed 09:52:15 PM 41.2375 -105.5650 129° Southeast 321 369 16,700 -1,073 Descending Denver Center
Wed 09:53:17 PM 41.1706 -105.4681 133° Southeast 319 367 15,400 -1,073 Descending Denver Center
Wed 09:54:18 PM 41.1125 -105.3839 132° Southeast 322 371 14,500 -732 Descending Denver Center
Wed 09:55:20 PM 41.0483 -105.2842 130° Southeast 319 367 13,900 -581 Descending Denver Center
Wed 09:56:22 PM 40.9914 -105.2050 134° Southeast 315 362 13,300 -439 Descending Denver Center
Wed 09:57:23 PM 40.9333 -105.1211 132° Southeast 309 356 13,000 -146 Descending Denver Center
Wed 09:58:25 PM 40.8764 -105.0375 132° Southeast 304 350 13,000 49 Level Denver Center
Wed 09:59:26 PM 40.8192 -104.9589 134° Southeast 298 343 13,100  Climbing Denver Center
Wed 10:00:28 PM 40.7581 -104.8839 137° Southeast 305 351 13,000 -98 Descending Denver Center
Wed 10:01:29 PM 40.6800 -104.8192 148° Southeast 299 344 12,900 -195 Descending Denver Center
Wed 10:02:31 PM 40.6042 -104.7617 150° Southeast 293 337 12,600 -585 Descending Denver Center
Wed 10:03:32 PM 40.5358 -104.7061 148° Southeast 289 333 11,700 -683 Descending Denver Center
Wed 10:04:34 PM 40.4653 -104.6481 148° Southeast 297 342 11,200 -293 Descending Denver Center
Wed 10:05:35 PM 40.3986 -104.5914 147° Southeast 289 333 11,100 -49 Descending Denver Center
Wed 10:06:37 PM 40.3231 -104.5414 153° Southeast 283 326 11,100  Level Denver Center
Wed 10:07:38 PM 40.2425 -104.5356 177° South 283 326 11,100  Level Denver Center
Wed 10:08:40 PM 40.1619 -104.5292 177° South 287 330 11,100  Level Denver Center
Wed 10:09:41 PM 40.0767 -104.5208 176° South 284 327 11,100  Level Denver Center
Wed 10:09:56 PM 40.0667 -104.5167 162° South 286 329 11,100  Level Denver TRACON
Wed 10:11:02 PM 39.9667 -104.5167 180° South 286 329 11,100  Level Denver TRACON
Wed 10:12:45 PM 39.8411 -104.5017 175° South 273 314 11,100 -145 Level Denver Center
Wed 10:13:47 PM 39.7639 -104.4964 177° South 259 298 10,700 -634 Descending Denver Center
Wed 10:14:48 PM 39.6931 -104.4944 179° South 254 292 9,800 -927 Descending Denver Center
Wed 10:15:50 PM 39.6222 -104.4900 177° South 254 292 8,800 -829 Descending Denver Center
Wed 10:16:51 PM 39.5797 -104.5586 231° Southwest 275 316 8,100 -341 Descending Denver Center
Wed 10:17:53 PM 39.6008 -104.6478 287° West 266 306 8,100  Level Denver Center
Wed 10:18:54 PM 39.6708 -104.6436 North 255 293 8,100 -98 Level Denver Center
Wed 10:19:56 PM 39.7264 -104.6439 360° North 196 226 7,900 -634 Descending Denver Center
Wed 10:20:57 PM 39.7722 -104.6431 North 158 182 6,800 -927 Descending Denver Center
Wed 10:21:59 PM 39.8089 -104.6425 North 133 153 6,000 -634 Descending Denver Center
Wed 10:23:00 PM 39.8447 -104.6425 360° North 124 143 5,500 -492 Descending Denver Center

Login

Don't have an account? Register now (free) for customized features, flight alerts, and more!